Flugplatz Büren am Schwalenberg (UL)

Hier findest Du alle Informationen zum Flugplatz Büren am Schwalenberg (UL).

Informationen für Piloten zum Flugplatz Büren am Schwalenberg

Hier findest Du alle relevanten Informationen, die Du als Pilot benötigst, um Büren am Schwalenberg anzufliegen.

Flugplatz: Büren am Schwalenberg ICAO-Code: UL Flugplatz
Frequenz Turm: 122,475 Mhz GAFOR Gebiet: 10
Frequenz Ground: 122,475 Mhz Mogas: nein
Platzrunde: SO 1800 ft Landegebühr: -
Platzhöhe: Sunrise: 03:17 Uhr UTC
Pisten: 01/19 - 1000 m x 30 m, GRAS Sunset: 19:28 Uhr UTC

Mitglieder, die in Büren am Schwalenberg fliegen

Flugwetter am Flugplatz Büren am Schwalenberg

Die METAR Information stammen aus EDLP (8.25 km entfernt).

METAR Code:
2022/05/13 18:20
EDLP 131820Z 25005KT 210V290 CAVOK 16/05 Q1019

Flugschulen am Flugplatz Büren am Schwalenberg

Am Flugplatz Büren am Schwalenberg gibt es leider keine Flugschule.

Benachbarte Flugplätze und Flugschulen

Es gibt 19 weitere Flugplätze in einem Umkreis von 50 km um den Flugplatz Büren am Schwalenberg.

Jetzt anmelden

Passwort vergessen

Umfrage Archiv

Sendet Ihr ADS-B und/oder FLARM?

Ja
81.6 %
Nein
18.4 %
Stimmen: 147 | Diskussion
Anzeige: Roland Aircraft
Statistik Alle Mitglieder

Aktuell sind 49 Besucher online.

Anzeige: ULPower Aero Engines Anzeige: Pocket FMS